createdAt,value
2022-10-06T00:00:38.706Z,12.22
2022-10-06T00:03:05.324Z,12.19
2022-10-06T00:05:32.180Z,12.15
2022-10-06T00:08:00.285Z,12.13
2022-10-06T00:10:28.444Z,12.09
2022-10-06T00:12:55.245Z,12.12
2022-10-06T00:15:28.069Z,12.13
2022-10-06T00:17:55.562Z,12.12
2022-10-06T00:20:23.525Z,12.06
2022-10-06T00:22:50.205Z,12.14
2022-10-06T00:25:20.149Z,12.13
2022-10-06T00:27:48.895Z,12.20
2022-10-06T00:30:22.110Z,12.22
2022-10-06T00:32:54.598Z,12.47
2022-10-06T00:35:21.940Z,12.55
2022-10-06T00:37:49.060Z,12.82
2022-10-06T00:40:16.721Z,12.96
2022-10-06T00:42:59.831Z,13.25
2022-10-06T00:45:31.638Z,13.36
2022-10-06T00:48:02.606Z,13.44
2022-10-06T00:50:30.718Z,13.66
2022-10-06T00:52:57.875Z,13.78
2022-10-06T00:55:24.632Z,13.94
2022-10-06T00:57:52.898Z,14.08
2022-10-06T01:00:20.729Z,14.05
2022-10-06T01:02:57.138Z,14.20
2022-10-06T01:05:31.233Z,14.21
2022-10-06T01:07:58.796Z,14.21
2022-10-06T01:10:25.397Z,14.33
2022-10-06T01:12:52.223Z,14.31
2022-10-06T01:15:21.077Z,14.27
2022-10-06T01:18:13.332Z,14.18
2022-10-06T01:20:49.360Z,14.10
2022-10-06T01:23:16.823Z,14.07
2022-10-06T01:25:44.771Z,14.07
2022-10-06T01:28:13.214Z,14.16
2022-10-06T01:30:46.351Z,14.12
2022-10-06T01:33:12.995Z,14.16
2022-10-06T01:35:39.662Z,14.22
2022-10-06T01:38:06.272Z,14.27
2022-10-06T01:40:32.906Z,14.30
2022-10-06T01:42:59.498Z,14.40
2022-10-06T01:45:26.113Z,14.28
2022-10-06T01:47:53.084Z,14.18
2022-10-06T01:50:19.886Z,14.19
2022-10-06T01:52:46.457Z,14.08
2022-10-06T01:55:13.595Z,14.02
2022-10-06T01:57:43.890Z,13.99
2022-10-06T02:00:11.921Z,13.88
2022-10-06T02:02:38.497Z,13.98
2022-10-06T02:05:06.161Z,13.80
2022-10-06T02:07:35.550Z,13.72
2022-10-06T02:10:02.519Z,13.63
2022-10-06T02:12:31.785Z,13.56
2022-10-06T02:14:58.720Z,13.47
2022-10-06T02:17:25.344Z,13.39
2022-10-06T02:19:51.948Z,13.30
2022-10-06T02:22:18.550Z,13.24
2022-10-06T02:24:45.160Z,13.17
2022-10-06T02:27:11.827Z,13.16
2022-10-06T02:29:38.423Z,13.13
2022-10-06T02:32:05.792Z,13.26
2022-10-06T02:34:33.108Z,13.19
2022-10-06T02:36:59.749Z,13.13
2022-10-06T02:39:26.291Z,13.10
2022-10-06T02:41:52.913Z,13.17
2022-10-06T02:44:19.479Z,13.11
2022-10-06T02:46:46.143Z,13.16
2022-10-06T02:49:13.395Z,13.14
2022-10-06T02:51:39.982Z,13.13
2022-10-06T02:54:06.603Z,13.14
2022-10-06T02:56:33.209Z,13.15
2022-10-06T02:58:59.804Z,13.14
2022-10-06T03:01:28.727Z,13.19
2022-10-06T03:03:55.948Z,13.25
2022-10-06T03:06:25.173Z,13.28
2022-10-06T03:08:56.973Z,13.29
2022-10-06T03:11:26.040Z,13.32
2022-10-06T03:13:53.217Z,13.34
2022-10-06T03:16:32.094Z,13.34
2022-10-06T03:18:59.951Z,13.35
2022-10-06T03:21:33.248Z,13.40
2022-10-06T03:24:00.778Z,13.40
2022-10-06T03:26:30.577Z,13.41
2022-10-06T03:28:57.635Z,13.50
2022-10-06T03:31:25.623Z,13.52
2022-10-06T03:33:53.097Z,13.54
2022-10-06T03:36:22.499Z,13.62
2022-10-06T03:38:49.122Z,13.68
2022-10-06T03:41:21.159Z,13.79
2022-10-06T03:43:49.492Z,14.14
2022-10-06T03:46:21.803Z,14.16
2022-10-06T03:48:50.126Z,14.49
2022-10-06T03:51:22.098Z,14.58
2022-10-06T03:53:51.004Z,14.56
2022-10-06T03:56:23.624Z,14.71
2022-10-06T03:59:04.097Z,14.57
2022-10-06T04:01:36.649Z,14.52
2022-10-06T04:04:04.424Z,14.51
2022-10-06T04:06:33.592Z,14.49
2022-10-06T04:09:01.029Z,14.44
2022-10-06T04:11:33.102Z,14.59
2022-10-06T04:14:01.083Z,14.53
2022-10-06T04:16:29.910Z,14.50
2022-10-06T04:19:00.315Z,14.50
2022-10-06T04:21:28.240Z,14.55
2022-10-06T04:23:56.535Z,14.65
2022-10-06T04:26:25.329Z,14.68
2022-10-06T04:28:52.004Z,14.63
2022-10-06T04:31:24.684Z,14.58
2022-10-06T04:33:59.633Z,14.75
2022-10-06T04:36:32.243Z,14.71
2022-10-06T04:39:02.861Z,14.60
2022-10-06T04:41:32.259Z,14.66
2022-10-06T04:43:59.660Z,14.66
2022-10-06T04:46:44.529Z,14.66
2022-10-06T04:49:18.647Z,14.55
2022-10-06T04:51:46.301Z,14.51
2022-10-06T04:54:12.928Z,14.53
2022-10-06T04:56:39.513Z,14.43
2022-10-06T04:59:06.092Z,14.63
2022-10-06T05:01:35.612Z,14.52
2022-10-06T05:04:04.481Z,14.55
2022-10-06T05:06:32.831Z,14.37
2022-10-06T05:09:14.900Z,14.40
2022-10-06T05:11:41.689Z,14.58
2022-10-06T05:14:08.347Z,14.62
2022-10-06T05:16:38.085Z,14.51
2022-10-06T05:19:05.641Z,14.36
2022-10-06T05:21:33.392Z,14.26
2022-10-06T05:24:00.521Z,14.24
2022-10-06T05:26:32.178Z,14.26
2022-10-06T05:28:58.923Z,14.16
2022-10-06T05:31:31.743Z,14.40
2022-10-06T05:33:59.968Z,14.51
2022-10-06T05:36:29.790Z,14.31
2022-10-06T05:38:57.402Z,14.17
2022-10-06T05:41:28.964Z,14.19
2022-10-06T05:43:56.117Z,14.27
2022-10-06T05:46:25.433Z,14.16
2022-10-06T05:48:57.537Z,14.07
2022-10-06T05:51:30.700Z,14.15
2022-10-06T05:53:58.964Z,14.22
2022-10-06T05:56:27.889Z,14.16
2022-10-06T05:58:56.163Z,14.21
2022-10-06T06:01:31.455Z,13.99
2022-10-06T06:04:01.277Z,13.92
2022-10-06T06:06:35.860Z,13.81
2022-10-06T06:09:10.145Z,13.88
2022-10-06T06:11:39.520Z,13.84
2022-10-06T06:14:13.912Z,13.98
2022-10-06T06:16:42.180Z,14.05
2022-10-06T06:19:10.357Z,14.00
2022-10-06T06:21:37.644Z,14.29
2022-10-06T06:24:05.038Z,14.30
2022-10-06T06:26:33.820Z,14.52
2022-10-06T06:29:05.272Z,14.50
2022-10-06T06:31:37.411Z,14.46
2022-10-06T06:34:06.685Z,14.55
2022-10-06T06:36:40.948Z,14.76
2022-10-06T06:39:10.330Z,14.79
2022-10-06T06:41:39.903Z,14.76
2022-10-06T06:44:08.417Z,14.83
2022-10-06T06:49:07.793Z,15.28
2022-10-06T06:51:37.393Z,15.47
2022-10-06T06:54:04.999Z,15.41
2022-10-06T06:56:35.162Z,15.07
2022-10-06T06:59:05.749Z,15.31
2022-10-06T07:01:32.400Z,15.14
2022-10-06T07:03:59.403Z,15.15
2022-10-06T07:06:28.797Z,15.39
2022-10-06T07:08:57.679Z,15.21
2022-10-06T07:11:30.637Z,15.11
2022-10-06T07:14:05.207Z,15.49
2022-10-06T07:16:51.061Z,15.53
2022-10-06T07:19:38.080Z,15.33
2022-10-06T07:22:26.416Z,15.59
2022-10-06T07:25:08.831Z,15.82
2022-10-06T07:27:52.860Z,15.75
2022-10-06T07:30:28.760Z,15.84
2022-10-06T07:32:55.833Z,15.74
2022-10-06T07:35:23.612Z,15.70
2022-10-06T07:37:51.558Z,15.36
2022-10-06T07:40:18.587Z,15.62
2022-10-06T07:42:48.946Z,15.78
2022-10-06T07:45:36.547Z,16.02
2022-10-06T07:48:04.146Z,16.38
2022-10-06T07:50:31.058Z,16.34
2022-10-06T07:52:57.773Z,16.38
2022-10-06T07:55:24.397Z,16.60
2022-10-06T07:57:51.367Z,16.11
2022-10-06T08:00:22.396Z,15.90
2022-10-06T08:02:49.784Z,15.83
2022-10-06T08:05:16.470Z,15.41
2022-10-06T08:07:43.077Z,15.38
2022-10-06T08:10:09.915Z,15.55
2022-10-06T08:12:40.778Z,15.88
2022-10-06T08:15:09.258Z,15.84
2022-10-06T08:17:36.846Z,15.98
2022-10-06T08:20:09.451Z,15.83
2022-10-06T08:22:38.886Z,15.72
2022-10-06T08:25:07.836Z,15.09
2022-10-06T08:27:36.195Z,15.63
2022-10-06T08:30:05.968Z,15.71
2022-10-06T08:32:33.393Z,15.52
2022-10-06T08:35:00.124Z,15.65
2022-10-06T08:37:27.355Z,16.21
2022-10-06T08:39:54.827Z,16.37
2022-10-06T08:42:42.498Z,16.49
2022-10-06T08:45:15.420Z,16.88
2022-10-06T08:47:50.956Z,16.85
2022-10-06T08:50:18.137Z,16.34
2022-10-06T08:52:56.023Z,16.23
2022-10-06T08:55:45.255Z,16.70
2022-10-06T08:58:46.214Z,16.56
2022-10-06T09:01:19.630Z,16.46
2022-10-06T09:03:49.000Z,16.66
2022-10-06T09:06:18.613Z,17.08
2022-10-06T09:08:53.720Z,17.16
2022-10-06T09:11:31.650Z,16.67
2022-10-06T09:14:17.335Z,16.54
2022-10-06T09:16:50.390Z,16.63
2022-10-06T09:19:33.897Z,16.93
2022-10-06T09:22:02.445Z,17.16
2022-10-06T09:24:49.523Z,17.34
2022-10-06T09:27:23.967Z,16.94
2022-10-06T09:29:51.634Z,16.97
2022-10-06T09:32:20.802Z,17.35
2022-10-06T09:34:52.887Z,17.37
2022-10-06T09:37:19.561Z,17.77
2022-10-06T09:39:49.580Z,17.80
2022-10-06T09:42:25.367Z,17.55
2022-10-06T09:45:04.999Z,17.68
2022-10-06T09:47:47.622Z,17.77
2022-10-06T09:50:22.123Z,17.99
2022-10-06T09:52:57.952Z,18.08
2022-10-06T09:55:29.575Z,18.21
2022-10-06T09:57:57.462Z,18.47
2022-10-06T10:00:38.620Z,18.25
2022-10-06T10:03:12.364Z,18.38
2022-10-06T10:05:46.997Z,18.50
2022-10-06T10:08:13.525Z,18.58
2022-10-06T10:10:41.080Z,18.28
2022-10-06T10:13:26.461Z,18.43
2022-10-06T10:16:00.688Z,18.27
2022-10-06T10:18:30.389Z,18.12
2022-10-06T10:21:05.191Z,18.24
2022-10-06T10:23:39.291Z,18.11
2022-10-06T10:26:29.060Z,18.63
2022-10-06T10:29:33.472Z,18.58
2022-10-06T10:32:13.030Z,18.50
2022-10-06T10:34:49.980Z,18.27
2022-10-06T10:37:24.358Z,18.35
2022-10-06T10:39:59.238Z,18.57
2022-10-06T10:42:49.953Z,18.40
2022-10-06T10:45:38.001Z,18.60
2022-10-06T10:48:34.155Z,17.89
2022-10-06T10:51:07.098Z,17.88
2022-10-06T10:53:57.006Z,18.39
2022-10-06T10:56:26.433Z,18.17
2022-10-06T10:59:16.489Z,18.53
2022-10-06T11:01:53.552Z,19.01
2022-10-06T11:04:20.577Z,18.89
2022-10-06T11:07:17.835Z,18.81
2022-10-06T11:09:54.030Z,18.55
2022-10-06T11:12:42.675Z,18.51
2022-10-06T11:15:18.606Z,18.70
2022-10-06T11:17:47.367Z,18.21
2022-10-06T11:21:14.634Z,17.60
2022-10-06T11:23:50.891Z,17.43
2022-10-06T11:26:49.491Z,16.88
2022-10-06T11:29:39.429Z,17.44
2022-10-06T11:32:37.398Z,17.74
2022-10-06T11:35:19.687Z,18.02
2022-10-06T11:37:58.449Z,17.96
2022-10-06T11:40:42.259Z,17.71
2022-10-06T11:43:35.852Z,18.03
2022-10-06T11:46:31.247Z,17.84
2022-10-06T11:49:30.344Z,17.46
2022-10-06T11:52:08.188Z,18.00
2022-10-06T11:54:37.659Z,18.09
2022-10-06T11:57:30.365Z,17.97
2022-10-06T12:00:16.281Z,18.29
2022-10-06T12:02:48.635Z,18.23
2022-10-06T12:08:02.756Z,18.78
2022-10-06T12:10:29.313Z,19.05
2022-10-06T12:42:01.953Z,18.74
2022-10-06T12:44:31.592Z,18.57
2022-10-06T12:47:04.035Z,18.56
2022-10-06T12:49:40.396Z,18.72
2022-10-06T12:52:15.757Z,18.64
2022-10-06T12:54:53.661Z,18.53
2022-10-06T12:57:23.499Z,18.03
2022-10-06T12:59:50.360Z,17.95
2022-10-06T13:02:26.914Z,18.27
2022-10-06T13:05:01.698Z,18.35
2022-10-06T13:07:31.256Z,18.24
2022-10-06T13:10:16.059Z,18.38
2022-10-06T13:12:47.529Z,18.37
2022-10-06T13:15:20.650Z,18.59
2022-10-06T13:18:02.731Z,18.65
2022-10-06T13:20:35.596Z,18.71
2022-10-06T13:23:23.699Z,18.78
2022-10-06T13:26:13.218Z,18.65
2022-10-06T13:28:42.893Z,18.47
2022-10-06T13:31:15.366Z,18.45
2022-10-06T13:33:44.388Z,18.54
2022-10-06T13:36:12.498Z,18.50
2022-10-06T13:38:41.288Z,18.45
2022-10-06T13:41:14.041Z,18.65
2022-10-06T13:43:45.771Z,18.65
2022-10-06T13:46:16.898Z,18.70
2022-10-06T13:48:48.662Z,18.50
2022-10-06T13:51:22.115Z,18.66
2022-10-06T13:53:49.407Z,18.91
2022-10-06T13:58:56.220Z,18.31
2022-10-06T14:01:31.089Z,18.20
2022-10-06T14:04:14.945Z,18.12
2022-10-06T14:07:02.145Z,18.07
2022-10-06T14:09:32.925Z,17.87
2022-10-06T14:12:12.675Z,18.14
2022-10-06T14:14:39.633Z,18.09
2022-10-06T14:17:06.964Z,17.98
2022-10-06T14:19:38.905Z,18.09
2022-10-06T14:22:06.136Z,18.01
2022-10-06T14:24:37.545Z,17.87
2022-10-06T14:27:06.887Z,17.57
2022-10-06T14:29:34.377Z,17.62
2022-10-06T14:32:10.412Z,17.82
2022-10-06T14:34:37.019Z,17.61
2022-10-06T14:37:03.769Z,17.70
2022-10-06T14:39:30.499Z,17.64
2022-10-06T14:42:00.213Z,17.52
2022-10-06T14:44:26.907Z,17.40
2022-10-06T14:46:54.651Z,17.35
2022-10-06T14:49:22.152Z,17.22
2022-10-06T14:51:48.795Z,17.02
2022-10-06T14:54:15.588Z,17.09
2022-10-06T14:56:42.517Z,17.00
2022-10-06T14:59:12.575Z,16.93
2022-10-06T15:01:40.628Z,16.68
2022-10-06T15:04:13.199Z,16.82
2022-10-06T15:07:06.585Z,16.83
2022-10-06T15:09:33.257Z,16.74
2022-10-06T15:12:00.293Z,16.56
2022-10-06T15:14:28.494Z,16.33
2022-10-06T15:16:59.056Z,16.46
2022-10-06T15:19:26.276Z,16.24
2022-10-06T15:21:52.953Z,16.30
2022-10-06T15:24:20.027Z,16.19
2022-10-06T15:27:06.249Z,16.09
2022-10-06T15:29:34.858Z,16.06
2022-10-06T15:32:02.730Z,16.03
2022-10-06T15:34:32.342Z,15.78
2022-10-06T15:36:59.614Z,15.71
2022-10-06T15:39:28.918Z,15.55
2022-10-06T15:41:56.217Z,15.34
2022-10-06T15:44:23.430Z,15.52
2022-10-06T15:46:54.831Z,15.28
2022-10-06T15:49:22.650Z,15.38
2022-10-06T15:52:03.270Z,15.74
2022-10-06T15:54:33.896Z,15.46
2022-10-06T15:57:02.617Z,15.13
2022-10-06T15:59:32.832Z,15.15
2022-10-06T16:02:08.449Z,14.90
2022-10-06T16:04:39.382Z,14.65
2022-10-06T16:07:14.505Z,14.50
2022-10-06T16:09:43.988Z,14.35
2022-10-06T16:12:13.028Z,14.19
2022-10-06T16:14:39.837Z,13.98
2022-10-06T16:17:07.277Z,13.84
2022-10-06T16:19:37.048Z,13.65
2022-10-06T16:22:05.783Z,13.54
2022-10-06T16:24:33.138Z,13.35
2022-10-06T16:27:00.245Z,13.23
2022-10-06T16:29:28.268Z,13.04
2022-10-06T16:31:55.835Z,12.87
2022-10-06T16:34:23.193Z,12.72
2022-10-06T16:36:49.848Z,12.58
2022-10-06T16:39:21.617Z,12.43
2022-10-06T16:41:48.925Z,12.30
2022-10-06T16:44:15.603Z,12.17
2022-10-06T16:46:43.994Z,12.07
2022-10-06T16:49:11.145Z,11.94
2022-10-06T16:51:40.183Z,11.85
2022-10-06T16:54:12.455Z,11.69
2022-10-06T16:56:40.462Z,11.57
2022-10-06T16:59:11.767Z,11.48
2022-10-06T17:01:38.466Z,11.39
2022-10-06T17:04:17.835Z,11.30
2022-10-06T17:06:50.143Z,11.21
2022-10-06T17:09:17.640Z,11.11
2022-10-06T17:11:47.498Z,11.01
2022-10-06T17:14:14.871Z,10.93
2022-10-06T17:16:44.055Z,10.80
2022-10-06T17:19:12.528Z,10.69
2022-10-06T17:21:48.784Z,10.60
2022-10-06T17:24:18.211Z,10.51
2022-10-06T17:26:47.462Z,10.44
2022-10-06T17:29:21.216Z,10.37
2022-10-06T17:31:50.807Z,10.32
2022-10-06T17:34:21.891Z,10.26
2022-10-06T17:36:51.564Z,10.19
2022-10-06T17:39:21.536Z,10.14
2022-10-06T17:41:50.275Z,10.04
2022-10-06T17:44:22.923Z,9.96
2022-10-06T17:46:52.925Z,9.86
2022-10-06T17:49:21.593Z,9.83
2022-10-06T17:51:49.275Z,9.76
2022-10-06T17:54:19.802Z,9.71
2022-10-06T17:56:51.642Z,9.68
2022-10-06T17:59:28.604Z,9.59
2022-10-06T18:01:57.059Z,9.52
2022-10-06T18:04:24.921Z,9.45
2022-10-06T18:06:55.980Z,9.43
2022-10-06T18:09:25.829Z,9.39
2022-10-06T18:11:56.794Z,9.34
2022-10-06T18:14:28.735Z,9.31
2022-10-06T18:16:59.311Z,9.23
2022-10-06T18:19:36.003Z,9.15
2022-10-06T18:22:10.774Z,9.09
2022-10-06T18:24:44.019Z,9.01
2022-10-06T18:27:13.832Z,8.97
2022-10-06T18:29:41.364Z,8.91
2022-10-06T18:33:13.059Z,8.83
2022-10-06T18:37:43.150Z,8.74
2022-10-06T18:40:11.254Z,8.67
2022-10-06T18:42:39.297Z,8.68
2022-10-06T18:45:25.920Z,8.57
2022-10-06T18:48:11.050Z,8.55
2022-10-06T18:50:38.500Z,8.61
2022-10-06T18:53:05.820Z,8.51
2022-10-06T18:55:35.786Z,8.44
2022-10-06T18:58:14.788Z,8.32
2022-10-06T19:00:41.438Z,8.29
2022-10-06T19:03:08.114Z,8.20
2022-10-06T19:05:35.237Z,8.28
2022-10-06T19:08:01.847Z,8.26
2022-10-06T19:10:29.813Z,8.28
2022-10-06T19:12:58.324Z,8.20
2022-10-06T19:15:24.912Z,8.14
2022-10-06T19:17:51.507Z,8.04
2022-10-06T19:20:18.686Z,8.03
2022-10-06T19:22:47.567Z,8.01
2022-10-06T19:25:14.792Z,7.95
2022-10-06T19:27:41.649Z,7.89
2022-10-06T19:30:09.494Z,7.83
2022-10-06T19:32:36.287Z,7.95
2022-10-06T19:35:07.667Z,7.85
2022-10-06T19:37:35.990Z,7.81
2022-10-06T19:40:02.826Z,7.74
2022-10-06T19:42:47.731Z,7.73
2022-10-06T19:45:16.084Z,7.67
2022-10-06T19:47:43.099Z,7.64
2022-10-06T19:50:12.434Z,7.64
2022-10-06T19:52:40.477Z,7.57
2022-10-06T19:55:07.527Z,7.57
2022-10-06T19:58:16.071Z,7.51
2022-10-06T20:01:28.023Z,7.57
2022-10-06T20:08:06.847Z,7.37
2022-10-06T20:11:21.665Z,7.41
2022-10-06T20:20:24.685Z,7.24
2022-10-06T20:22:51.336Z,7.24
2022-10-06T20:25:17.955Z,7.28
2022-10-06T20:27:45.355Z,7.24
2022-10-06T20:31:29.459Z,7.21
2022-10-06T20:34:58.856Z,7.09
2022-10-06T20:41:18.682Z,7.04
2022-10-06T20:43:45.579Z,7.09
2022-10-06T20:46:12.312Z,6.97
2022-10-06T20:48:41.052Z,6.96
2022-10-06T20:51:16.476Z,7.00
2022-10-06T20:53:43.169Z,6.95
2022-10-06T20:56:40.322Z,7.00
2022-10-06T20:59:32.272Z,6.97
2022-10-06T21:08:34.674Z,6.81
2022-10-06T21:11:54.817Z,6.85
2022-10-06T21:14:21.422Z,6.70
2022-10-06T21:20:10.210Z,6.76
2022-10-06T21:22:36.744Z,6.69
2022-10-06T21:33:22.864Z,6.73
2022-10-06T21:35:59.877Z,6.63
2022-10-06T21:38:27.208Z,6.58
2022-10-06T21:40:54.608Z,6.54
2022-10-06T21:50:34.490Z,6.57
2022-10-06T21:53:01.179Z,6.42
2022-10-06T21:55:27.839Z,6.45
2022-10-06T21:57:54.421Z,6.37
2022-10-06T22:00:21.034Z,6.37
2022-10-06T22:02:47.824Z,6.35
2022-10-06T22:05:14.530Z,6.31
2022-10-06T22:07:41.579Z,6.32
2022-10-06T22:23:44.454Z,6.20
2022-10-06T22:26:12.698Z,6.18
2022-10-06T22:33:01.000Z,5.97
2022-10-06T22:35:25.504Z,5.97
2022-10-06T22:37:52.127Z,5.92
2022-10-06T22:40:18.917Z,5.85
2022-10-06T22:42:45.526Z,5.95
2022-10-06T22:45:12.520Z,5.94
2022-10-06T22:47:39.086Z,5.94
2022-10-06T22:54:45.029Z,5.86
2022-10-06T22:57:51.121Z,5.79
2022-10-06T23:00:57.581Z,5.73
2022-10-06T23:04:16.038Z,5.75
2022-10-06T23:10:53.499Z,5.76
2022-10-06T23:13:21.186Z,5.78
2022-10-06T23:15:47.997Z,5.62
2022-10-06T23:18:14.853Z,5.65
2022-10-06T23:20:41.547Z,5.64
2022-10-06T23:23:08.180Z,5.65
2022-10-06T23:25:38.539Z,5.61
2022-10-06T23:28:05.419Z,5.60
2022-10-06T23:30:34.974Z,5.54
2022-10-06T23:33:02.119Z,5.43
2022-10-06T23:35:28.861Z,5.43
2022-10-06T23:37:55.459Z,5.37
2022-10-06T23:40:22.110Z,5.45
2022-10-06T23:42:48.701Z,5.44
2022-10-06T23:45:15.322Z,5.49
2022-10-06T23:47:42.209Z,5.38
2022-10-06T23:50:09.331Z,5.37
2022-10-06T23:52:36.001Z,5.35
2022-10-06T23:55:02.592Z,5.30
2022-10-06T23:57:29.171Z,5.41
2022-10-06T23:59:55.762Z,5.35
